sensor_id;sensor_type;location;lat;lon;timestamp;P1;durP1;ratioP1;P2;durP2;ratioP2
21581;SDS011;10952;50.836;4.348;2023-01-26T00:00:46;90.97;;;29.20;;
21581;SDS011;10952;50.836;4.348;2023-01-26T00:03:12;92.73;;;27.80;;
21581;SDS011;10952;50.836;4.348;2023-01-26T00:05:38;103.97;;;28.73;;
21581;SDS011;10952;50.836;4.348;2023-01-26T00:08:04;94.13;;;29.00;;
21581;SDS011;10952;50.836;4.348;2023-01-26T00:10:31;102.53;;;28.40;;
21581;SDS011;10952;50.836;4.348;2023-01-26T00:12:56;105.83;;;30.63;;
21581;SDS011;10952;50.836;4.348;2023-01-26T00:15:22;102.23;;;28.73;;
21581;SDS011;10952;50.836;4.348;2023-01-26T00:17:48;90.80;;;27.97;;
21581;SDS011;10952;50.836;4.348;2023-01-26T00:20:16;107.90;;;31.33;;
21581;SDS011;10952;50.836;4.348;2023-01-26T00:22:44;96.73;;;28.20;;
21581;SDS011;10952;50.836;4.348;2023-01-26T00:25:13;101.23;;;29.77;;
21581;SDS011;10952;50.836;4.348;2023-01-26T00:27:39;100.60;;;29.77;;
21581;SDS011;10952;50.836;4.348;2023-01-26T00:30:05;102.50;;;30.13;;
21581;SDS011;10952;50.836;4.348;2023-01-26T00:32:36;98.10;;;29.20;;
21581;SDS011;10952;50.836;4.348;2023-01-26T00:35:03;101.23;;;29.93;;
21581;SDS011;10952;50.836;4.348;2023-01-26T00:37:30;96.77;;;27.83;;
21581;SDS011;10952;50.836;4.348;2023-01-26T00:39:56;97.00;;;29.63;;
21581;SDS011;10952;50.836;4.348;2023-01-26T00:42:22;105.27;;;28.90;;
21581;SDS011;10952;50.836;4.348;2023-01-26T00:44:49;106.50;;;30.33;;
21581;SDS011;10952;50.836;4.348;2023-01-26T00:47:17;88.03;;;27.10;;
21581;SDS011;10952;50.836;4.348;2023-01-26T00:49:45;97.83;;;28.93;;
21581;SDS011;10952;50.836;4.348;2023-01-26T00:52:12;106.93;;;29.63;;
21581;SDS011;10952;50.836;4.348;2023-01-26T00:54:40;96.23;;;30.13;;
21581;SDS011;10952;50.836;4.348;2023-01-26T00:57:15;103.40;;;31.10;;
21581;SDS011;10952;50.836;4.348;2023-01-26T00:59:44;95.57;;;30.27;;
21581;SDS011;10952;50.836;4.348;2023-01-26T01:02:13;99.10;;;28.00;;
21581;SDS011;10952;50.836;4.348;2023-01-26T01:04:39;93.70;;;29.43;;
21581;SDS011;10952;50.836;4.348;2023-01-26T01:07:04;98.67;;;30.07;;
21581;SDS011;10952;50.836;4.348;2023-01-26T01:09:30;109.23;;;32.03;;
21581;SDS011;10952;50.836;4.348;2023-01-26T01:11:56;108.87;;;32.13;;
21581;SDS011;10952;50.836;4.348;2023-01-26T01:14:21;105.43;;;32.70;;
21581;SDS011;10952;50.836;4.348;2023-01-26T01:16:49;104.73;;;30.13;;
21581;SDS011;10952;50.836;4.348;2023-01-26T01:19:18;102.37;;;32.63;;
21581;SDS011;10952;50.836;4.348;2023-01-26T01:24:31;106.20;;;33.33;;
21581;SDS011;10952;50.836;4.348;2023-01-26T01:29:28;100.40;;;31.97;;
21581;SDS011;10952;50.836;4.348;2023-01-26T01:31:55;105.77;;;30.77;;
21581;SDS011;10952;50.836;4.348;2023-01-26T01:34:22;109.37;;;33.07;;
21581;SDS011;10952;50.836;4.348;2023-01-26T01:36:47;113.23;;;31.83;;
21581;SDS011;10952;50.836;4.348;2023-01-26T01:41:42;109.67;;;30.60;;
21581;SDS011;10952;50.836;4.348;2023-01-26T01:44:21;114.27;;;33.23;;
21581;SDS011;10952;50.836;4.348;2023-01-26T01:49:49;101.10;;;31.03;;
21581;SDS011;10952;50.836;4.348;2023-01-26T01:52:26;111.43;;;32.17;;
21581;SDS011;10952;50.836;4.348;2023-01-26T01:55:02;106.80;;;31.93;;
21581;SDS011;10952;50.836;4.348;2023-01-26T01:57:40;102.10;;;32.20;;
21581;SDS011;10952;50.836;4.348;2023-01-26T02:03:06;103.10;;;30.90;;
21581;SDS011;10952;50.836;4.348;2023-01-26T02:08:36;96.10;;;30.13;;
21581;SDS011;10952;50.836;4.348;2023-01-26T02:11:08;91.90;;;28.90;;
21581;SDS011;10952;50.836;4.348;2023-01-26T02:13:37;94.93;;;28.67;;
21581;SDS011;10952;50.836;4.348;2023-01-26T02:16:06;103.83;;;30.67;;
21581;SDS011;10952;50.836;4.348;2023-01-26T02:21:10;107.23;;;29.60;;
21581;SDS011;10952;50.836;4.348;2023-01-26T02:23:49;93.87;;;29.17;;
21581;SDS011;10952;50.836;4.348;2023-01-26T02:26:36;91.40;;;27.47;;
21581;SDS011;10952;50.836;4.348;2023-01-26T02:29:04;99.50;;;29.70;;
21581;SDS011;10952;50.836;4.348;2023-01-26T02:31:38;96.30;;;30.37;;
21581;SDS011;10952;50.836;4.348;2023-01-26T02:34:08;93.77;;;28.87;;
21581;SDS011;10952;50.836;4.348;2023-01-26T02:36:37;98.30;;;29.33;;
21581;SDS011;10952;50.836;4.348;2023-01-26T02:41:42;90.83;;;28.33;;
21581;SDS011;10952;50.836;4.348;2023-01-26T02:44:28;94.73;;;28.37;;
21581;SDS011;10952;50.836;4.348;2023-01-26T02:46:56;92.07;;;28.80;;
21581;SDS011;10952;50.836;4.348;2023-01-26T02:49:26;96.87;;;28.73;;
21581;SDS011;10952;50.836;4.348;2023-01-26T02:52:14;101.73;;;29.90;;
21581;SDS011;10952;50.836;4.348;2023-01-26T02:54:43;97.30;;;30.73;;
21581;SDS011;10952;50.836;4.348;2023-01-26T02:57:30;102.20;;;29.97;;
21581;SDS011;10952;50.836;4.348;2023-01-26T03:00:05;99.57;;;30.10;;
21581;SDS011;10952;50.836;4.348;2023-01-26T03:02:39;94.77;;;30.10;;
21581;SDS011;10952;50.836;4.348;2023-01-26T03:05:12;90.27;;;29.17;;
21581;SDS011;10952;50.836;4.348;2023-01-26T03:07:37;92.90;;;29.30;;
21581;SDS011;10952;50.836;4.348;2023-01-26T03:10:04;100.67;;;30.53;;
21581;SDS011;10952;50.836;4.348;2023-01-26T03:12:32;103.40;;;30.03;;
21581;SDS011;10952;50.836;4.348;2023-01-26T03:15:01;94.37;;;28.53;;
21581;SDS011;10952;50.836;4.348;2023-01-26T03:20:14;98.07;;;29.50;;
21581;SDS011;10952;50.836;4.348;2023-01-26T03:22:58;94.70;;;30.27;;
21581;SDS011;10952;50.836;4.348;2023-01-26T03:28:31;99.70;;;29.60;;
21581;SDS011;10952;50.836;4.348;2023-01-26T03:31:00;94.13;;;28.43;;
21581;SDS011;10952;50.836;4.348;2023-01-26T03:33:33;96.50;;;30.07;;
21581;SDS011;10952;50.836;4.348;2023-01-26T03:36:00;102.20;;;29.70;;
21581;SDS011;10952;50.836;4.348;2023-01-26T03:41:01;102.37;;;28.03;;
21581;SDS011;10952;50.836;4.348;2023-01-26T03:43:48;100.33;;;28.70;;
21581;SDS011;10952;50.836;4.348;2023-01-26T03:46:34;101.50;;;29.97;;
21581;SDS011;10952;50.836;4.348;2023-01-26T03:49:20;103.40;;;28.97;;
21581;SDS011;10952;50.836;4.348;2023-01-26T03:52:07;91.47;;;26.93;;
21581;SDS011;10952;50.836;4.348;2023-01-26T03:57:41;87.17;;;27.83;;
21581;SDS011;10952;50.836;4.348;2023-01-26T04:02:42;98.57;;;27.43;;
21581;SDS011;10952;50.836;4.348;2023-01-26T04:05:29;95.27;;;28.97;;
21581;SDS011;10952;50.836;4.348;2023-01-26T04:08:16;86.93;;;26.23;;
21581;SDS011;10952;50.836;4.348;2023-01-26T04:10:47;84.77;;;26.27;;
21581;SDS011;10952;50.836;4.348;2023-01-26T04:13:18;91.60;;;27.00;;
21581;SDS011;10952;50.836;4.348;2023-01-26T04:16:04;101.80;;;28.43;;
21581;SDS011;10952;50.836;4.348;2023-01-26T04:18:50;96.07;;;27.60;;
21581;SDS011;10952;50.836;4.348;2023-01-26T04:21:35;82.10;;;25.63;;
21581;SDS011;10952;50.836;4.348;2023-01-26T04:24:05;82.00;;;25.43;;
21581;SDS011;10952;50.836;4.348;2023-01-26T04:26:38;95.17;;;27.07;;
21581;SDS011;10952;50.836;4.348;2023-01-26T04:29:11;93.73;;;26.60;;
21581;SDS011;10952;50.836;4.348;2023-01-26T04:31:38;87.90;;;24.60;;
21581;SDS011;10952;50.836;4.348;2023-01-26T04:34:06;83.80;;;25.83;;
21581;SDS011;10952;50.836;4.348;2023-01-26T04:36:35;94.00;;;25.77;;
21581;SDS011;10952;50.836;4.348;2023-01-26T04:39:01;81.53;;;24.47;;
21581;SDS011;10952;50.836;4.348;2023-01-26T04:41:27;85.33;;;25.07;;
21581;SDS011;10952;50.836;4.348;2023-01-26T04:43:57;95.13;;;26.87;;
21581;SDS011;10952;50.836;4.348;2023-01-26T04:46:26;85.07;;;23.77;;
21581;SDS011;10952;50.836;4.348;2023-01-26T04:48:51;86.87;;;25.17;;
21581;SDS011;10952;50.836;4.348;2023-01-26T04:51:18;90.87;;;26.33;;
21581;SDS011;10952;50.836;4.348;2023-01-26T04:56:33;89.97;;;25.67;;
21581;SDS011;10952;50.836;4.348;2023-01-26T04:59:04;91.87;;;27.40;;
21581;SDS011;10952;50.836;4.348;2023-01-26T05:04:03;83.23;;;27.40;;
21581;SDS011;10952;50.836;4.348;2023-01-26T05:06:30;86.63;;;24.60;;
21581;SDS011;10952;50.836;4.348;2023-01-26T05:08:56;83.07;;;24.60;;
21581;SDS011;10952;50.836;4.348;2023-01-26T05:11:22;79.00;;;24.00;;
21581;SDS011;10952;50.836;4.348;2023-01-26T05:13:48;83.57;;;25.17;;
21581;SDS011;10952;50.836;4.348;2023-01-26T05:16:17;79.43;;;25.50;;
21581;SDS011;10952;50.836;4.348;2023-01-26T05:18:48;83.00;;;24.67;;
21581;SDS011;10952;50.836;4.348;2023-01-26T05:21:14;79.30;;;24.67;;
21581;SDS011;10952;50.836;4.348;2023-01-26T05:23:39;90.63;;;26.13;;
21581;SDS011;10952;50.836;4.348;2023-01-26T05:29:14;76.77;;;24.57;;
21581;SDS011;10952;50.836;4.348;2023-01-26T05:31:42;83.27;;;24.33;;
21581;SDS011;10952;50.836;4.348;2023-01-26T05:34:08;83.43;;;24.50;;
21581;SDS011;10952;50.836;4.348;2023-01-26T05:36:40;81.67;;;25.20;;
21581;SDS011;10952;50.836;4.348;2023-01-26T05:39:06;88.10;;;26.13;;
21581;SDS011;10952;50.836;4.348;2023-01-26T05:41:33;84.00;;;25.63;;
21581;SDS011;10952;50.836;4.348;2023-01-26T05:46:27;79.00;;;24.17;;
21581;SDS011;10952;50.836;4.348;2023-01-26T05:51:22;74.97;;;23.27;;
21581;SDS011;10952;50.836;4.348;2023-01-26T05:53:47;87.77;;;25.00;;
21581;SDS011;10952;50.836;4.348;2023-01-26T05:56:14;80.80;;;23.30;;
21581;SDS011;10952;50.836;4.348;2023-01-26T05:58:49;62.97;;;20.27;;
21581;SDS011;10952;50.836;4.348;2023-01-26T06:01:15;74.87;;;22.47;;
21581;SDS011;10952;50.836;4.348;2023-01-26T06:03:48;73.27;;;23.93;;
21581;SDS011;10952;50.836;4.348;2023-01-26T06:08:47;74.47;;;23.13;;
21581;SDS011;10952;50.836;4.348;2023-01-26T06:11:13;64.00;;;20.77;;
21581;SDS011;10952;50.836;4.348;2023-01-26T06:13:39;67.57;;;20.83;;
21581;SDS011;10952;50.836;4.348;2023-01-26T06:16:05;68.37;;;22.03;;
21581;SDS011;10952;50.836;4.348;2023-01-26T06:18:34;61.37;;;19.70;;
21581;SDS011;10952;50.836;4.348;2023-01-26T06:21:06;59.13;;;18.27;;
21581;SDS011;10952;50.836;4.348;2023-01-26T06:23:35;62.20;;;19.73;;
21581;SDS011;10952;50.836;4.348;2023-01-26T06:26:01;57.67;;;19.07;;
21581;SDS011;10952;50.836;4.348;2023-01-26T06:28:29;58.00;;;19.50;;
21581;SDS011;10952;50.836;4.348;2023-01-26T06:31:02;55.83;;;18.40;;
21581;SDS011;10952;50.836;4.348;2023-01-26T06:33:35;67.13;;;21.47;;
21581;SDS011;10952;50.836;4.348;2023-01-26T06:36:07;63.80;;;20.17;;
21581;SDS011;10952;50.836;4.348;2023-01-26T06:41:10;61.77;;;18.10;;
21581;SDS011;10952;50.836;4.348;2023-01-26T06:43:37;54.00;;;18.40;;
21581;SDS011;10952;50.836;4.348;2023-01-26T06:46:05;55.90;;;18.70;;
21581;SDS011;10952;50.836;4.348;2023-01-26T06:48:31;61.10;;;21.00;;
21581;SDS011;10952;50.836;4.348;2023-01-26T06:53:53;58.17;;;19.33;;
21581;SDS011;10952;50.836;4.348;2023-01-26T06:56:22;60.20;;;18.43;;
21581;SDS011;10952;50.836;4.348;2023-01-26T06:58:51;60.47;;;20.23;;
21581;SDS011;10952;50.836;4.348;2023-01-26T07:01:18;58.70;;;19.53;;
21581;SDS011;10952;50.836;4.348;2023-01-26T07:03:49;50.90;;;17.97;;
21581;SDS011;10952;50.836;4.348;2023-01-26T07:06:17;52.47;;;17.53;;
21581;SDS011;10952;50.836;4.348;2023-01-26T07:08:46;52.50;;;18.00;;
21581;SDS011;10952;50.836;4.348;2023-01-26T07:11:17;50.13;;;17.37;;
21581;SDS011;10952;50.836;4.348;2023-01-26T07:13:47;61.03;;;17.83;;
21581;SDS011;10952;50.836;4.348;2023-01-26T07:16:13;49.60;;;18.10;;
21581;SDS011;10952;50.836;4.348;2023-01-26T07:18:40;52.80;;;18.60;;
21581;SDS011;10952;50.836;4.348;2023-01-26T07:21:09;51.90;;;17.50;;
21581;SDS011;10952;50.836;4.348;2023-01-26T07:23:37;50.10;;;17.07;;
21581;SDS011;10952;50.836;4.348;2023-01-26T07:26:09;54.50;;;18.13;;
21581;SDS011;10952;50.836;4.348;2023-01-26T07:28:37;48.63;;;17.07;;
21581;SDS011;10952;50.836;4.348;2023-01-26T07:33:35;49.53;;;16.97;;
21581;SDS011;10952;50.836;4.348;2023-01-26T07:36:05;47.00;;;16.17;;
21581;SDS011;10952;50.836;4.348;2023-01-26T07:38:34;52.27;;;16.67;;
21581;SDS011;10952;50.836;4.348;2023-01-26T07:41:05;47.67;;;17.30;;
21581;SDS011;10952;50.836;4.348;2023-01-26T07:43:35;55.47;;;19.30;;
21581;SDS011;10952;50.836;4.348;2023-01-26T07:46:04;52.67;;;16.93;;
21581;SDS011;10952;50.836;4.348;2023-01-26T07:48:30;47.80;;;17.80;;
21581;SDS011;10952;50.836;4.348;2023-01-26T07:51:00;53.90;;;17.63;;
21581;SDS011;10952;50.836;4.348;2023-01-26T07:53:28;53.33;;;17.60;;
21581;SDS011;10952;50.836;4.348;2023-01-26T07:56:08;54.07;;;18.20;;
21581;SDS011;10952;50.836;4.348;2023-01-26T07:58:38;53.03;;;18.70;;
21581;SDS011;10952;50.836;4.348;2023-01-26T08:01:07;55.53;;;18.27;;
21581;SDS011;10952;50.836;4.348;2023-01-26T08:03:35;54.53;;;18.73;;
21581;SDS011;10952;50.836;4.348;2023-01-26T08:06:01;48.43;;;16.30;;
21581;SDS011;10952;50.836;4.348;2023-01-26T08:08:28;43.70;;;16.50;;
21581;SDS011;10952;50.836;4.348;2023-01-26T08:11:00;52.20;;;17.70;;
21581;SDS011;10952;50.836;4.348;2023-01-26T08:13:28;49.87;;;16.97;;
21581;SDS011;10952;50.836;4.348;2023-01-26T08:16:06;49.13;;;17.90;;
21581;SDS011;10952;50.836;4.348;2023-01-26T08:18:39;46.33;;;16.60;;
21581;SDS011;10952;50.836;4.348;2023-01-26T08:21:10;47.07;;;17.50;;
21581;SDS011;10952;50.836;4.348;2023-01-26T08:23:39;51.17;;;18.53;;
21581;SDS011;10952;50.836;4.348;2023-01-26T08:26:06;54.37;;;16.33;;
21581;SDS011;10952;50.836;4.348;2023-01-26T08:28:34;52.10;;;17.27;;
21581;SDS011;10952;50.836;4.348;2023-01-26T08:31:05;50.60;;;17.10;;
21581;SDS011;10952;50.836;4.348;2023-01-26T08:33:36;51.20;;;16.13;;
21581;SDS011;10952;50.836;4.348;2023-01-26T08:36:04;47.57;;;17.10;;
21581;SDS011;10952;50.836;4.348;2023-01-26T08:38:32;48.53;;;17.13;;
21581;SDS011;10952;50.836;4.348;2023-01-26T08:40:58;46.60;;;16.37;;
21581;SDS011;10952;50.836;4.348;2023-01-26T08:43:29;49.70;;;16.23;;
21581;SDS011;10952;50.836;4.348;2023-01-26T08:45:57;42.87;;;16.37;;
21581;SDS011;10952;50.836;4.348;2023-01-26T08:51:00;46.13;;;15.83;;
21581;SDS011;10952;50.836;4.348;2023-01-26T08:53:32;48.17;;;16.87;;
21581;SDS011;10952;50.836;4.348;2023-01-26T08:56:02;38.83;;;15.80;;
21581;SDS011;10952;50.836;4.348;2023-01-26T08:58:36;48.30;;;16.53;;
21581;SDS011;10952;50.836;4.348;2023-01-26T09:01:06;44.17;;;15.33;;
21581;SDS011;10952;50.836;4.348;2023-01-26T09:03:36;45.93;;;15.63;;
21581;SDS011;10952;50.836;4.348;2023-01-26T09:06:02;51.47;;;16.50;;
21581;SDS011;10952;50.836;4.348;2023-01-26T09:08:31;45.37;;;16.30;;
21581;SDS011;10952;50.836;4.348;2023-01-26T09:11:00;43.47;;;16.07;;
21581;SDS011;10952;50.836;4.348;2023-01-26T09:13:34;38.87;;;14.03;;
21581;SDS011;10952;50.836;4.348;2023-01-26T09:16:11;44.43;;;15.30;;
21581;SDS011;10952;50.836;4.348;2023-01-26T09:18:39;48.20;;;18.40;;
21581;SDS011;10952;50.836;4.348;2023-01-26T09:21:06;47.73;;;16.70;;
21581;SDS011;10952;50.836;4.348;2023-01-26T09:23:35;39.33;;;15.13;;
21581;SDS011;10952;50.836;4.348;2023-01-26T09:26:01;39.00;;;14.67;;
21581;SDS011;10952;50.836;4.348;2023-01-26T09:30:56;40.27;;;14.67;;
21581;SDS011;10952;50.836;4.348;2023-01-26T09:33:29;33.80;;;13.90;;
21581;SDS011;10952;50.836;4.348;2023-01-26T09:36:08;47.63;;;17.40;;
21581;SDS011;10952;50.836;4.348;2023-01-26T09:41:17;35.43;;;14.13;;
21581;SDS011;10952;50.836;4.348;2023-01-26T09:43:59;36.90;;;14.10;;
21581;SDS011;10952;50.836;4.348;2023-01-26T09:46:45;42.40;;;13.87;;
21581;SDS011;10952;50.836;4.348;2023-01-26T09:54:51;36.10;;;13.97;;
21581;SDS011;10952;50.836;4.348;2023-01-26T10:08:13;32.50;;;13.43;;
21581;SDS011;10952;50.836;4.348;2023-01-26T10:10:49;38.27;;;14.97;;
21581;SDS011;10952;50.836;4.348;2023-01-26T10:13:24;28.17;;;12.23;;
21581;SDS011;10952;50.836;4.348;2023-01-26T10:15:51;28.73;;;12.87;;
21581;SDS011;10952;50.836;4.348;2023-01-26T10:18:27;31.27;;;13.63;;
21581;SDS011;10952;50.836;4.348;2023-01-26T10:21:00;35.60;;;14.03;;
21581;SDS011;10952;50.836;4.348;2023-01-26T10:23:29;32.13;;;13.07;;
21581;SDS011;10952;50.836;4.348;2023-01-26T10:26:13;35.57;;;13.50;;
21581;SDS011;10952;50.836;4.348;2023-01-26T10:28:43;36.27;;;14.37;;
21581;SDS011;10952;50.836;4.348;2023-01-26T10:31:16;37.90;;;15.03;;
21581;SDS011;10952;50.836;4.348;2023-01-26T10:33:54;45.00;;;14.67;;
21581;SDS011;10952;50.836;4.348;2023-01-26T10:36:42;44.10;;;14.87;;
21581;SDS011;10952;50.836;4.348;2023-01-26T10:39:15;36.07;;;14.90;;
21581;SDS011;10952;50.836;4.348;2023-01-26T10:42:00;36.87;;;14.60;;
21581;SDS011;10952;50.836;4.348;2023-01-26T10:44:37;49.63;;;17.40;;
21581;SDS011;10952;50.836;4.348;2023-01-26T10:47:13;47.37;;;16.47;;
21581;SDS011;10952;50.836;4.348;2023-01-26T10:49:44;56.27;;;17.00;;
21581;SDS011;10952;50.836;4.348;2023-01-26T10:52:15;38.30;;;15.60;;
21581;SDS011;10952;50.836;4.348;2023-01-26T10:57:39;46.53;;;16.17;;
21581;SDS011;10952;50.836;4.348;2023-01-26T11:00:18;57.20;;;19.70;;
21581;SDS011;10952;50.836;4.348;2023-01-26T11:05:39;50.43;;;17.50;;
21581;SDS011;10952;50.836;4.348;2023-01-26T11:08:29;41.17;;;16.80;;
21581;SDS011;10952;50.836;4.348;2023-01-26T11:11:04;58.53;;;18.83;;
21581;SDS011;10952;50.836;4.348;2023-01-26T11:13:35;55.87;;;19.77;;
21581;SDS011;10952;50.836;4.348;2023-01-26T11:16:10;51.43;;;17.63;;
21581;SDS011;10952;50.836;4.348;2023-01-26T11:18:45;57.30;;;20.30;;
21581;SDS011;10952;50.836;4.348;2023-01-26T11:23:57;53.60;;;20.20;;
21581;SDS011;10952;50.836;4.348;2023-01-26T11:51:21;47.97;;;17.43;;
21581;SDS011;10952;50.836;4.348;2023-01-26T11:59:03;57.43;;;19.10;;
21581;SDS011;10952;50.836;4.348;2023-01-26T12:04:14;48.77;;;16.67;;
21581;SDS011;10952;50.836;4.348;2023-01-26T12:06:52;49.13;;;17.23;;
21581;SDS011;10952;50.836;4.348;2023-01-26T12:14:51;66.77;;;21.57;;
21581;SDS011;10952;50.836;4.348;2023-01-26T12:17:49;54.43;;;18.57;;
21581;SDS011;10952;50.836;4.348;2023-01-26T12:20:26;59.00;;;18.70;;
21581;SDS011;10952;50.836;4.348;2023-01-26T12:28:23;53.10;;;17.97;;
21581;SDS011;10952;50.836;4.348;2023-01-26T12:33:17;60.97;;;18.93;;
21581;SDS011;10952;50.836;4.348;2023-01-26T12:35:57;60.43;;;18.80;;
21581;SDS011;10952;50.836;4.348;2023-01-26T12:41:18;46.07;;;17.43;;
21581;SDS011;10952;50.836;4.348;2023-01-26T12:44:09;59.53;;;16.43;;
21581;SDS011;10952;50.836;4.348;2023-01-26T12:46:43;50.57;;;16.47;;
21581;SDS011;10952;50.836;4.348;2023-01-26T12:51:46;47.60;;;15.73;;
21581;SDS011;10952;50.836;4.348;2023-01-26T12:56:55;50.43;;;13.33;;
21581;SDS011;10952;50.836;4.348;2023-01-26T12:59:29;46.27;;;16.07;;
21581;SDS011;10952;50.836;4.348;2023-01-26T13:01:58;44.33;;;12.90;;
21581;SDS011;10952;50.836;4.348;2023-01-26T13:04:25;48.07;;;13.00;;
21581;SDS011;10952;50.836;4.348;2023-01-26T13:07:01;43.37;;;13.17;;
21581;SDS011;10952;50.836;4.348;2023-01-26T13:09:28;36.23;;;12.43;;
21581;SDS011;10952;50.836;4.348;2023-01-26T13:11:56;39.00;;;11.23;;
21581;SDS011;10952;50.836;4.348;2023-01-26T13:14:28;37.17;;;11.30;;
21581;SDS011;10952;50.836;4.348;2023-01-26T13:18:04;39.00;;;10.20;;
21581;SDS011;10952;50.836;4.348;2023-01-26T13:29:21;24.97;;;7.20;;
21581;SDS011;10952;50.836;4.348;2023-01-26T13:31:48;26.50;;;6.90;;
21581;SDS011;10952;50.836;4.348;2023-01-26T13:34:23;28.10;;;6.83;;
21581;SDS011;10952;50.836;4.348;2023-01-26T13:37:34;23.97;;;5.97;;
21581;SDS011;10952;50.836;4.348;2023-01-26T13:40:00;29.83;;;6.67;;
21581;SDS011;10952;50.836;4.348;2023-01-26T13:48:23;28.37;;;5.40;;
21581;SDS011;10952;50.836;4.348;2023-01-26T13:51:15;36.07;;;5.20;;
21581;SDS011;10952;50.836;4.348;2023-01-26T13:53:56;23.90;;;3.93;;
21581;SDS011;10952;50.836;4.348;2023-01-26T13:56:37;19.67;;;4.53;;
21581;SDS011;10952;50.836;4.348;2023-01-26T13:59:12;19.73;;;3.40;;
21581;SDS011;10952;50.836;4.348;2023-01-26T14:01:45;20.33;;;3.77;;
21581;SDS011;10952;50.836;4.348;2023-01-26T14:04:14;15.50;;;3.77;;
21581;SDS011;10952;50.836;4.348;2023-01-26T14:06:41;27.83;;;5.50;;
21581;SDS011;10952;50.836;4.348;2023-01-26T14:09:14;21.07;;;5.20;;
21581;SDS011;10952;50.836;4.348;2023-01-26T14:11:41;27.63;;;4.07;;
21581;SDS011;10952;50.836;4.348;2023-01-26T14:14:24;18.97;;;3.37;;
21581;SDS011;10952;50.836;4.348;2023-01-26T14:16:56;26.30;;;5.83;;
21581;SDS011;10952;50.836;4.348;2023-01-26T14:19:23;17.47;;;3.40;;
21581;SDS011;10952;50.836;4.348;2023-01-26T14:21:51;15.23;;;3.50;;
21581;SDS011;10952;50.836;4.348;2023-01-26T14:24:25;13.93;;;3.37;;
21581;SDS011;10952;50.836;4.348;2023-01-26T14:27:00;28.53;;;6.40;;
21581;SDS011;10952;50.836;4.348;2023-01-26T14:29:28;14.77;;;4.30;;
21581;SDS011;10952;50.836;4.348;2023-01-26T14:31:55;21.13;;;5.33;;
21581;SDS011;10952;50.836;4.348;2023-01-26T14:34:27;18.83;;;5.23;;
21581;SDS011;10952;50.836;4.348;2023-01-26T14:37:05;25.63;;;4.93;;
21581;SDS011;10952;50.836;4.348;2023-01-26T14:42:05;19.57;;;4.10;;
21581;SDS011;10952;50.836;4.348;2023-01-26T14:44:31;11.17;;;2.83;;
21581;SDS011;10952;50.836;4.348;2023-01-26T14:47:18;20.30;;;4.33;;
21581;SDS011;10952;50.836;4.348;2023-01-26T14:49:58;18.77;;;3.80;;
21581;SDS011;10952;50.836;4.348;2023-01-26T14:52:28;20.13;;;3.97;;
21581;SDS011;10952;50.836;4.348;2023-01-26T14:57:43;23.00;;;3.87;;
21581;SDS011;10952;50.836;4.348;2023-01-26T15:00:21;11.93;;;3.40;;
21581;SDS011;10952;50.836;4.348;2023-01-26T15:02:51;19.30;;;4.40;;
21581;SDS011;10952;50.836;4.348;2023-01-26T15:05:24;18.73;;;4.47;;
21581;SDS011;10952;50.836;4.348;2023-01-26T15:07:59;22.53;;;3.90;;
21581;SDS011;10952;50.836;4.348;2023-01-26T15:13:40;18.47;;;4.13;;
21581;SDS011;10952;50.836;4.348;2023-01-26T15:16:14;23.13;;;4.33;;
21581;SDS011;10952;50.836;4.348;2023-01-26T15:18:42;22.87;;;5.30;;
21581;SDS011;10952;50.836;4.348;2023-01-26T15:21:14;23.00;;;3.63;;
21581;SDS011;10952;50.836;4.348;2023-01-26T15:23:44;12.97;;;3.10;;
21581;SDS011;10952;50.836;4.348;2023-01-26T15:28:54;18.70;;;4.27;;
21581;SDS011;10952;50.836;4.348;2023-01-26T15:31:29;22.83;;;4.07;;
21581;SDS011;10952;50.836;4.348;2023-01-26T15:34:02;17.87;;;5.13;;
21581;SDS011;10952;50.836;4.348;2023-01-26T15:36:31;20.53;;;4.40;;
21581;SDS011;10952;50.836;4.348;2023-01-26T15:39:16;22.67;;;4.37;;
21581;SDS011;10952;50.836;4.348;2023-01-26T15:41:45;18.90;;;3.40;;
21581;SDS011;10952;50.836;4.348;2023-01-26T15:44:31;20.70;;;3.90;;
21581;SDS011;10952;50.836;4.348;2023-01-26T15:47:04;17.53;;;4.13;;
21581;SDS011;10952;50.836;4.348;2023-01-26T15:49:32;23.47;;;3.97;;
21581;SDS011;10952;50.836;4.348;2023-01-26T15:52:00;18.70;;;3.40;;
21581;SDS011;10952;50.836;4.348;2023-01-26T15:54:29;20.30;;;3.97;;
21581;SDS011;10952;50.836;4.348;2023-01-26T15:56:57;17.97;;;3.57;;
21581;SDS011;10952;50.836;4.348;2023-01-26T15:59:26;15.40;;;3.53;;
21581;SDS011;10952;50.836;4.348;2023-01-26T16:01:53;24.30;;;4.60;;
21581;SDS011;10952;50.836;4.348;2023-01-26T16:04:20;18.13;;;3.73;;
21581;SDS011;10952;50.836;4.348;2023-01-26T16:06:47;20.50;;;4.10;;
21581;SDS011;10952;50.836;4.348;2023-01-26T16:09:23;22.90;;;4.80;;
21581;SDS011;10952;50.836;4.348;2023-01-26T16:12:03;14.70;;;3.73;;
21581;SDS011;10952;50.836;4.348;2023-01-26T16:14:30;17.97;;;4.07;;
21581;SDS011;10952;50.836;4.348;2023-01-26T16:17:05;18.73;;;4.30;;
21581;SDS011;10952;50.836;4.348;2023-01-26T16:19:37;10.70;;;3.27;;
21581;SDS011;10952;50.836;4.348;2023-01-26T16:22:05;21.70;;;4.40;;
21581;SDS011;10952;50.836;4.348;2023-01-26T16:24:33;18.63;;;4.17;;
21581;SDS011;10952;50.836;4.348;2023-01-26T16:26:58;17.67;;;4.70;;
21581;SDS011;10952;50.836;4.348;2023-01-26T16:29:24;13.30;;;3.80;;
21581;SDS011;10952;50.836;4.348;2023-01-26T16:31:50;19.00;;;4.77;;
21581;SDS011;10952;50.836;4.348;2023-01-26T16:34:17;16.73;;;4.07;;
21581;SDS011;10952;50.836;4.348;2023-01-26T16:36:44;20.07;;;5.27;;
21581;SDS011;10952;50.836;4.348;2023-01-26T16:39:11;16.63;;;4.30;;
21581;SDS011;10952;50.836;4.348;2023-01-26T16:41:36;16.90;;;3.73;;
21581;SDS011;10952;50.836;4.348;2023-01-26T16:44:10;15.30;;;2.97;;
21581;SDS011;10952;50.836;4.348;2023-01-26T16:46:40;19.60;;;4.07;;
21581;SDS011;10952;50.836;4.348;2023-01-26T16:49:09;15.70;;;4.27;;
21581;SDS011;10952;50.836;4.348;2023-01-26T16:51:41;16.67;;;4.17;;
21581;SDS011;10952;50.836;4.348;2023-01-26T16:54:11;15.53;;;4.47;;
21581;SDS011;10952;50.836;4.348;2023-01-26T16:56:38;15.00;;;3.90;;
21581;SDS011;10952;50.836;4.348;2023-01-26T16:59:04;16.87;;;3.77;;
21581;SDS011;10952;50.836;4.348;2023-01-26T17:04:03;14.80;;;3.43;;
21581;SDS011;10952;50.836;4.348;2023-01-26T17:09:01;14.13;;;3.20;;
21581;SDS011;10952;50.836;4.348;2023-01-26T17:11:28;12.97;;;3.83;;
21581;SDS011;10952;50.836;4.348;2023-01-26T17:13:54;14.10;;;3.40;;
21581;SDS011;10952;50.836;4.348;2023-01-26T17:16:21;17.80;;;4.27;;
21581;SDS011;10952;50.836;4.348;2023-01-26T17:18:55;16.43;;;5.63;;
21581;SDS011;10952;50.836;4.348;2023-01-26T17:21:21;13.97;;;3.57;;
21581;SDS011;10952;50.836;4.348;2023-01-26T17:23:49;12.63;;;3.63;;
21581;SDS011;10952;50.836;4.348;2023-01-26T17:26:18;18.90;;;6.10;;
21581;SDS011;10952;50.836;4.348;2023-01-26T17:28:45;14.60;;;3.40;;
21581;SDS011;10952;50.836;4.348;2023-01-26T17:31:18;12.57;;;3.77;;
21581;SDS011;10952;50.836;4.348;2023-01-26T17:33:48;14.17;;;3.43;;
21581;SDS011;10952;50.836;4.348;2023-01-26T17:36:16;10.80;;;3.20;;
21581;SDS011;10952;50.836;4.348;2023-01-26T17:38:43;11.20;;;2.47;;
21581;SDS011;10952;50.836;4.348;2023-01-26T17:41:10;14.40;;;3.27;;
21581;SDS011;10952;50.836;4.348;2023-01-26T17:43:36;10.30;;;2.10;;